Terminal Aerodrome Forecast
Issued by NWS Duluth, MN

Home | Current Version | Previous Version | Text Only | Print | Product List | Glossary On
Versions: 1 2 3 4 5 6 7 8 9 10 11 12 13 14 15 16 17 18 19 20 21
008
FTUS43 KDLH 201723
TAFDLH
TAF
KDLH 201723Z 2018/2118 18008KT P6SM BKN120
     FM210100 24010KT P6SM BKN140
     FM210300 26012G22KT P6SM BKN150 WS020/29045KT
     FM210600 28017G27KT P6SM BKN020 OVC030
     FM211300 31019G31KT P6SM SCT015 BKN035=

USA.gov is the U.S. government's official web portal to all federal, state and local government web resources and services.